Smithville, Missouri
Current Conditions -  °F | °C
As of 4:53 PM on Friday 31 Oct 2014 (Local Time) from KMCI Reporting Station
Clear Clear  
Wind Chill: 39°   Ceiling: Unl
Heat Index: 45°   Visibility: 10mi
Dew Point: 20°   Wind: 12mph
Humidity: 37%   Direction: 360°N
Pressure: 30.44"   Gusts: NA
Location:  39.39°N, 94.58°W
Report Text: KMCI 312153Z 36010KT 10SM CLR 07/M07 A3044 RMK AO2 SLP313 T00721067
Loading
Personal Weather Stations






























Interactive Weather Map
Tropical Storm Tracking
New forecast layout! Learn more

10-Day Weather Forecast

Advertisements
Track Severe Weather on mobile